createdAt,value
2018-12-18T00:00:28.349Z,4.60
2018-12-18T00:01:28.254Z,4.60
2018-12-18T00:02:28.213Z,4.58
2018-12-18T00:03:28.184Z,4.60
2018-12-18T00:04:28.156Z,4.61
2018-12-18T00:05:28.171Z,4.71
2018-12-18T00:06:28.082Z,4.68
2018-12-18T00:07:28.889Z,4.64
2018-12-18T00:08:28.015Z,4.72
2018-12-18T00:09:27.982Z,4.71
2018-12-18T00:10:28.017Z,4.71
2018-12-18T00:11:27.964Z,4.78
2018-12-18T00:12:27.876Z,4.66
2018-12-18T00:13:28.387Z,4.79
2018-12-18T00:14:28.392Z,4.69
2018-12-18T00:15:27.776Z,4.72
2018-12-18T00:16:27.784Z,4.57
2018-12-18T00:17:27.717Z,4.58
2018-12-18T00:18:27.683Z,4.56
2018-12-18T00:19:27.646Z,4.58
2018-12-18T00:20:27.610Z,4.56
2018-12-18T00:21:27.659Z,4.58
2018-12-18T00:22:27.545Z,4.57
2018-12-18T00:23:27.573Z,4.58
2018-12-18T00:24:27.484Z,4.58
2018-12-18T00:25:27.470Z,4.68
2018-12-18T00:26:27.482Z,4.65
2018-12-18T00:27:27.375Z,4.64
2018-12-18T00:28:27.383Z,4.58
2018-12-18T00:29:27.308Z,4.58
2018-12-18T00:30:27.296Z,4.60
2018-12-18T00:31:27.464Z,4.57
2018-12-18T00:32:27.259Z,4.58
2018-12-18T00:33:27.182Z,4.61
2018-12-18T00:34:27.160Z,4.68
2018-12-18T00:35:27.109Z,4.71
2018-12-18T00:36:27.089Z,4.69
2018-12-18T00:37:27.084Z,4.69
2018-12-18T00:38:27.008Z,4.66
2018-12-18T00:39:26.989Z,4.75
2018-12-18T00:40:26.952Z,4.72
2018-12-18T00:41:27.906Z,4.79
2018-12-18T00:42:26.920Z,4.85
2018-12-18T00:43:27.400Z,4.79
2018-12-18T00:44:26.854Z,4.84
2018-12-18T00:45:27.411Z,4.85
2018-12-18T00:46:26.749Z,4.79
2018-12-18T00:47:26.756Z,4.84
2018-12-18T00:48:26.679Z,4.79
2018-12-18T00:49:26.685Z,4.83
2018-12-18T00:50:26.615Z,4.84
2018-12-18T00:51:27.393Z,4.87
2018-12-18T00:52:26.541Z,4.92
2018-12-18T00:53:26.505Z,4.90
2018-12-18T00:54:26.536Z,4.88
2018-12-18T00:55:26.504Z,4.90
2018-12-18T00:56:27.392Z,4.83
2018-12-18T00:57:26.897Z,4.79
2018-12-18T00:58:26.892Z,4.83
2018-12-18T00:59:26.409Z,4.83
2018-12-18T01:00:26.897Z,4.76
2018-12-18T01:01:26.246Z,4.79
2018-12-18T01:02:26.205Z,4.78
2018-12-18T01:03:26.177Z,4.72
2018-12-18T01:04:26.188Z,4.79
2018-12-18T01:05:26.896Z,4.84
2018-12-18T01:06:26.903Z,4.76
2018-12-18T01:07:26.087Z,4.85
2018-12-18T01:08:26.010Z,4.88
2018-12-18T01:09:26.470Z,4.88
2018-12-18T01:10:26.468Z,4.84
2018-12-18T01:11:26.903Z,4.87
2018-12-18T01:12:25.873Z,4.94
2018-12-18T01:13:26.396Z,4.84
2018-12-18T01:14:26.401Z,4.94
2018-12-18T01:15:25.826Z,4.92
2018-12-18T01:16:25.745Z,4.94
2018-12-18T01:17:25.720Z,4.95
2018-12-18T01:18:26.408Z,4.95
2018-12-18T01:19:25.693Z,4.95
2018-12-18T01:20:25.615Z,5.00
2018-12-18T01:21:25.593Z,5.00
2018-12-18T01:22:25.539Z,5.02
2018-12-18T01:23:26.402Z,4.97
2018-12-18T01:24:25.601Z,4.98
2018-12-18T01:25:25.450Z,5.05
2018-12-18T01:26:25.970Z,4.95
2018-12-18T01:27:25.391Z,4.95
2018-12-18T01:28:25.353Z,5.02
2018-12-18T01:29:25.324Z,4.94
2018-12-18T01:30:25.346Z,4.91
2018-12-18T01:31:25.239Z,4.94
2018-12-18T01:32:25.903Z,4.98
2018-12-18T01:33:25.907Z,4.97
2018-12-18T01:34:25.172Z,4.97
2018-12-18T01:35:25.171Z,4.94
2018-12-18T01:36:25.072Z,5.02
2018-12-18T01:37:25.901Z,4.90
2018-12-18T01:38:25.010Z,4.94
2018-12-18T01:39:24.975Z,5.03
2018-12-18T01:40:24.985Z,4.95
2018-12-18T01:41:24.912Z,5.05
2018-12-18T01:42:24.875Z,5.13
2018-12-18T01:43:25.401Z,5.08
2018-12-18T01:44:24.962Z,5.05
2018-12-18T01:45:25.404Z,5.06
2018-12-18T01:46:24.793Z,5.12
2018-12-18T01:47:24.710Z,5.16
2018-12-18T01:48:24.678Z,5.13
2018-12-18T01:49:24.664Z,5.12
2018-12-18T01:50:24.615Z,5.20
2018-12-18T01:51:24.629Z,5.12
2018-12-18T01:52:24.643Z,5.18
2018-12-18T01:53:24.523Z,5.16
2018-12-18T01:54:24.506Z,5.13
2018-12-18T01:55:24.959Z,5.13
2018-12-18T01:56:24.461Z,5.13
2018-12-18T01:57:24.906Z,5.13
2018-12-18T01:58:24.478Z,5.13
2018-12-18T01:59:24.902Z,5.15
2018-12-18T02:00:24.907Z,5.06
2018-12-18T02:01:24.466Z,5.15
2018-12-18T02:02:24.215Z,5.10
2018-12-18T02:03:24.187Z,5.21
2018-12-18T02:04:24.910Z,5.06
2018-12-18T02:05:24.904Z,5.12
2018-12-18T02:06:24.452Z,5.13
2018-12-18T02:07:24.527Z,5.12
2018-12-18T02:08:24.915Z,5.15
2018-12-18T02:09:23.995Z,5.16
2018-12-18T02:10:23.950Z,5.10
2018-12-18T02:11:23.945Z,5.13
2018-12-18T02:12:23.918Z,5.16
2018-12-18T02:13:23.890Z,5.21
2018-12-18T02:14:24.438Z,5.18
2018-12-18T02:15:24.401Z,5.18
2018-12-18T02:16:23.763Z,5.16
2018-12-18T02:17:24.360Z,5.12
2018-12-18T02:18:24.406Z,5.09
2018-12-18T02:19:23.656Z,5.13
2018-12-18T02:20:23.626Z,5.12
2018-12-18T02:21:23.609Z,5.06
2018-12-18T02:22:24.465Z,5.05
2018-12-18T02:23:23.988Z,5.10
2018-12-18T02:24:24.409Z,5.00
2018-12-18T02:25:23.494Z,5.08
2018-12-18T02:26:24.415Z,4.97
2018-12-18T02:27:23.913Z,5.00
2018-12-18T02:28:23.563Z,5.03
2018-12-18T02:29:23.386Z,4.92
2018-12-18T02:30:23.290Z,4.97
2018-12-18T02:31:23.255Z,4.97
2018-12-18T02:32:23.225Z,4.92
2018-12-18T02:33:23.240Z,5.10
2018-12-18T02:34:23.905Z,5.08
2018-12-18T02:35:23.160Z,5.10
2018-12-18T02:36:23.096Z,5.08
2018-12-18T02:37:23.117Z,5.06
2018-12-18T02:38:23.913Z,5.10
2018-12-18T02:39:22.983Z,5.05
2018-12-18T02:40:22.998Z,5.09
2018-12-18T02:41:23.911Z,5.10
2018-12-18T02:42:22.890Z,5.08
2018-12-18T02:43:22.856Z,5.06
2018-12-18T02:44:22.867Z,5.10
2018-12-18T02:45:22.781Z,5.12
2018-12-18T02:46:22.761Z,5.06
2018-12-18T02:47:22.723Z,5.03
2018-12-18T02:48:23.410Z,5.09
2018-12-18T02:49:22.781Z,5.10
2018-12-18T02:50:22.637Z,5.10
2018-12-18T02:51:22.594Z,5.13
2018-12-18T02:52:22.593Z,5.08
2018-12-18T02:53:22.519Z,5.15
2018-12-18T02:54:22.492Z,5.12
2018-12-18T02:55:22.491Z,5.15
2018-12-18T02:56:23.412Z,5.15
2018-12-18T02:57:22.433Z,5.18
2018-12-18T02:58:22.944Z,5.23
2018-12-18T02:59:22.323Z,5.13
2018-12-18T03:00:22.346Z,5.12
2018-12-18T03:01:22.267Z,5.12
2018-12-18T03:02:22.238Z,5.12
2018-12-18T03:03:22.190Z,5.16
2018-12-18T03:04:22.158Z,5.20
2018-12-18T03:05:22.166Z,5.26
2018-12-18T03:06:22.133Z,5.24
2018-12-18T03:07:22.063Z,5.30
2018-12-18T03:08:22.076Z,5.34
2018-12-18T03:09:22.060Z,5.30
2018-12-18T03:10:22.910Z,5.30
2018-12-18T03:11:22.926Z,5.36
2018-12-18T03:12:21.900Z,5.39
2018-12-18T03:13:21.912Z,5.36
2018-12-18T03:14:21.826Z,5.39
2018-12-18T03:15:21.798Z,5.34
2018-12-18T03:16:21.772Z,5.36
2018-12-18T03:17:21.730Z,5.42
2018-12-18T03:18:21.771Z,5.45
2018-12-18T03:19:21.966Z,5.49
2018-12-18T03:20:21.642Z,5.46
2018-12-18T03:21:22.409Z,5.51
2018-12-18T03:22:22.422Z,5.52
2018-12-18T03:23:21.634Z,5.52
2018-12-18T03:24:22.410Z,5.55
2018-12-18T03:25:21.464Z,5.51
2018-12-18T03:26:22.413Z,5.54
2018-12-18T03:27:21.395Z,5.46
2018-12-18T03:28:21.406Z,5.37
2018-12-18T03:29:21.393Z,5.42
2018-12-18T03:30:21.538Z,5.34
2018-12-18T03:31:21.277Z,5.42
2018-12-18T03:32:21.231Z,5.39
2018-12-18T03:33:21.211Z,5.41
2018-12-18T03:34:28.127Z,5.39
2018-12-18T03:35:21.913Z,5.34
2018-12-18T03:36:21.926Z,5.31
2018-12-18T03:37:21.915Z,5.27
2018-12-18T03:38:21.469Z,5.24
2018-12-18T03:39:21.000Z,5.30
2018-12-18T03:40:21.473Z,5.16
2018-12-18T03:41:21.912Z,5.16
2018-12-18T03:42:20.902Z,5.20
2018-12-18T03:43:21.408Z,5.20
2018-12-18T03:44:20.832Z,5.15
2018-12-18T03:45:20.966Z,5.16
2018-12-18T03:46:20.818Z,5.05
2018-12-18T03:47:21.413Z,5.15
2018-12-18T03:48:20.704Z,5.15
2018-12-18T03:49:20.677Z,5.16
2018-12-18T03:50:20.641Z,5.12
2018-12-18T03:51:20.645Z,5.15
2018-12-18T03:52:20.578Z,5.16
2018-12-18T03:53:20.537Z,5.08
2018-12-18T03:54:20.519Z,5.16
2018-12-18T03:55:20.523Z,5.13
2018-12-18T03:56:21.453Z,5.06
2018-12-18T03:57:20.401Z,4.98
2018-12-18T03:58:20.415Z,5.10
2018-12-18T03:59:20.915Z,5.00
2018-12-18T04:00:20.917Z,4.91
2018-12-18T04:01:20.484Z,5.02
2018-12-18T04:02:20.260Z,4.94
2018-12-18T04:03:20.934Z,4.97
2018-12-18T04:04:20.169Z,4.91
2018-12-18T04:05:20.929Z,4.92
2018-12-18T04:06:20.509Z,4.91
2018-12-18T04:07:20.067Z,4.95
2018-12-18T04:08:20.036Z,4.91
2018-12-18T04:09:20.995Z,4.95
2018-12-18T04:10:20.918Z,4.94
2018-12-18T04:11:20.000Z,4.94
2018-12-18T04:12:20.419Z,4.94
2018-12-18T04:13:19.986Z,4.92
2018-12-18T04:14:19.877Z,4.92
2018-12-18T04:15:20.431Z,4.97
2018-12-18T04:16:19.770Z,4.97
2018-12-18T04:17:19.975Z,4.91
2018-12-18T04:18:20.420Z,4.90
2018-12-18T04:19:19.679Z,4.88
2018-12-18T04:20:19.634Z,4.94
2018-12-18T04:21:19.622Z,4.94
2018-12-18T04:22:19.625Z,4.90
2018-12-18T04:23:20.534Z,4.90
2018-12-18T04:24:19.500Z,4.90
2018-12-18T04:25:20.415Z,4.95
2018-12-18T04:26:19.433Z,4.92
2018-12-18T04:27:19.454Z,4.97
2018-12-18T04:28:19.368Z,4.91
2018-12-18T04:29:19.368Z,4.98
2018-12-18T04:30:19.926Z,4.94
2018-12-18T04:31:19.281Z,4.91
2018-12-18T04:32:19.304Z,4.87
2018-12-18T04:33:19.204Z,4.91
2018-12-18T04:34:19.192Z,4.97
2018-12-18T04:35:19.142Z,4.91
2018-12-18T04:36:19.102Z,4.90
2018-12-18T04:37:19.132Z,4.88
2018-12-18T04:38:19.047Z,4.92
2018-12-18T04:39:19.933Z,4.92
2018-12-18T04:40:19.473Z,4.94
2018-12-18T04:41:19.478Z,4.98
2018-12-18T04:42:18.901Z,5.02
2018-12-18T04:43:19.002Z,4.98
2018-12-18T04:44:18.837Z,5.02
2018-12-18T04:45:19.424Z,4.95
2018-12-18T04:46:18.775Z,4.95
2018-12-18T04:47:19.462Z,5.00
2018-12-18T04:48:18.750Z,4.94
2018-12-18T04:49:18.678Z,4.90
2018-12-18T04:50:18.707Z,4.95
2018-12-18T04:51:18.660Z,4.97
2018-12-18T04:52:18.581Z,4.98
2018-12-18T04:53:18.544Z,4.95
2018-12-18T04:54:18.637Z,4.94
2018-12-18T04:55:18.469Z,5.00
2018-12-18T04:56:18.480Z,5.02
2018-12-18T04:57:18.396Z,5.02
2018-12-18T04:58:18.374Z,4.97
2018-12-18T04:59:18.924Z,4.95
2018-12-18T05:00:18.410Z,4.92
2018-12-18T05:01:18.269Z,4.87
2018-12-18T05:02:18.238Z,4.91
2018-12-18T05:03:18.203Z,4.88
2018-12-18T05:04:18.921Z,4.97
2018-12-18T05:05:18.183Z,4.91
2018-12-18T05:06:18.103Z,4.95
2018-12-18T05:07:18.067Z,4.88
2018-12-18T05:08:18.922Z,4.87
2018-12-18T05:09:18.922Z,4.88
2018-12-18T05:10:18.184Z,4.90
2018-12-18T05:11:18.928Z,4.91
2018-12-18T05:12:17.904Z,4.94
2018-12-18T05:13:17.884Z,4.88
2018-12-18T05:14:17.838Z,4.87
2018-12-18T05:15:17.983Z,4.87
2018-12-18T05:16:18.422Z,4.94
2018-12-18T05:17:17.740Z,4.91
2018-12-18T05:18:18.425Z,4.91
2018-12-18T05:19:17.671Z,4.97
2018-12-18T05:20:17.690Z,4.90
2018-12-18T05:21:17.631Z,4.91
2018-12-18T05:22:17.567Z,4.94
2018-12-18T05:23:17.583Z,4.97
2018-12-18T05:24:17.504Z,4.88
2018-12-18T05:25:17.508Z,4.88
2018-12-18T05:26:17.438Z,4.97
2018-12-18T05:27:17.405Z,4.94
2018-12-18T05:28:17.361Z,4.95
2018-12-18T05:29:17.334Z,5.00
2018-12-18T05:30:17.354Z,5.02
2018-12-18T05:31:17.309Z,4.94
2018-12-18T05:32:17.282Z,4.97
2018-12-18T05:33:17.201Z,4.92
2018-12-18T05:34:17.162Z,4.94
2018-12-18T05:35:17.135Z,4.92
2018-12-18T05:36:17.156Z,5.09
2018-12-18T05:37:17.065Z,5.08
2018-12-18T05:38:17.029Z,5.06
2018-12-18T05:39:17.003Z,5.09
2018-12-18T05:40:17.994Z,5.09
2018-12-18T05:41:16.984Z,5.08
2018-12-18T05:42:16.947Z,5.05
2018-12-18T05:43:16.920Z,5.03
2018-12-18T05:44:16.835Z,5.06
2018-12-18T05:45:16.800Z,5.08
2018-12-18T05:46:16.812Z,5.12
2018-12-18T05:47:16.729Z,5.03
2018-12-18T05:48:16.696Z,5.09
2018-12-18T05:49:16.669Z,5.08
2018-12-18T05:50:16.683Z,5.10
2018-12-18T05:51:16.600Z,5.15
2018-12-18T05:52:16.563Z,5.13
2018-12-18T05:53:16.580Z,5.21
2018-12-18T05:54:16.501Z,5.08
2018-12-18T05:55:16.464Z,5.13
2018-12-18T05:56:16.433Z,5.18
2018-12-18T05:57:16.525Z,5.15
2018-12-18T05:58:16.367Z,5.00
2018-12-18T05:59:16.343Z,5.08
2018-12-18T06:00:16.298Z,4.97
2018-12-18T06:01:16.266Z,5.16
2018-12-18T06:02:16.508Z,5.15
2018-12-18T06:03:16.203Z,5.12
2018-12-18T06:04:16.175Z,5.10
2018-12-18T06:05:16.143Z,5.02
2018-12-18T06:06:16.096Z,5.20
2018-12-18T06:07:16.169Z,5.16
2018-12-18T06:08:16.043Z,5.16
2018-12-18T06:09:16.007Z,5.21
2018-12-18T06:10:15.968Z,5.09
2018-12-18T06:11:15.934Z,5.15
2018-12-18T06:12:15.955Z,5.10
2018-12-18T06:13:15.867Z,5.12
2018-12-18T06:14:15.842Z,5.12
2018-12-18T06:15:15.798Z,5.06
2018-12-18T06:16:15.761Z,5.06
2018-12-18T06:17:15.782Z,5.18
2018-12-18T06:18:17.338Z,5.05
2018-12-18T06:19:15.674Z,5.10
2018-12-18T06:20:15.637Z,5.09
2018-12-18T06:21:15.602Z,5.03
2018-12-18T06:22:15.599Z,5.15
2018-12-18T06:23:15.574Z,5.15
2018-12-18T06:24:15.499Z,5.09
2018-12-18T06:25:16.569Z,5.10
2018-12-18T06:26:15.487Z,5.12
2018-12-18T06:27:15.407Z,5.09
2018-12-18T06:28:15.410Z,5.06
2018-12-18T06:29:15.334Z,4.97
2018-12-18T06:30:15.347Z,5.18
2018-12-18T06:31:15.264Z,5.12
2018-12-18T06:32:15.254Z,4.97
2018-12-18T06:33:15.200Z,5.09
2018-12-18T06:34:15.841Z,5.08
2018-12-18T06:35:15.169Z,5.09
2018-12-18T06:36:15.101Z,5.20
2018-12-18T06:37:15.126Z,5.20
2018-12-18T06:38:15.038Z,5.10
2018-12-18T06:39:15.002Z,5.15
2018-12-18T06:40:14.968Z,5.15
2018-12-18T06:41:14.932Z,5.12
2018-12-18T06:42:14.951Z,5.08
2018-12-18T06:43:14.909Z,5.12
2018-12-18T06:44:14.828Z,5.08
2018-12-18T06:45:14.796Z,5.21
2018-12-18T06:46:15.435Z,5.09
2018-12-18T06:47:14.746Z,5.12
2018-12-18T06:48:14.752Z,5.12
2018-12-18T06:49:14.808Z,5.12
2018-12-18T06:50:14.634Z,5.16
2018-12-18T06:51:14.600Z,5.15
2018-12-18T06:52:14.619Z,5.15
2018-12-18T06:53:14.532Z,5.13
2018-12-18T06:54:14.495Z,5.10
2018-12-18T06:55:14.463Z,5.15
2018-12-18T06:56:14.493Z,5.15
2018-12-18T06:57:14.407Z,5.09
2018-12-18T06:58:14.388Z,5.21
2018-12-18T06:59:14.327Z,5.20
2018-12-18T07:00:14.298Z,5.21
2018-12-18T07:01:14.325Z,5.13
2018-12-18T07:02:14.237Z,5.21
2018-12-18T07:03:14.197Z,5.16
2018-12-18T07:04:14.257Z,5.13
2018-12-18T07:05:16.927Z,5.24
2018-12-18T07:06:14.211Z,5.30
2018-12-18T07:07:14.062Z,5.28
2018-12-18T07:08:14.491Z,5.21
2018-12-18T07:09:13.997Z,5.31
2018-12-18T07:10:13.970Z,5.30
2018-12-18T07:11:13.931Z,5.36
2018-12-18T07:12:13.895Z,5.27
2018-12-18T07:13:13.916Z,5.41
2018-12-18T07:14:14.438Z,5.37
2018-12-18T07:15:13.817Z,5.34
2018-12-18T07:16:13.765Z,5.37
2018-12-18T07:17:13.731Z,5.34
2018-12-18T07:18:13.746Z,5.34
2018-12-18T07:19:13.716Z,5.42
2018-12-18T07:20:13.644Z,5.34
2018-12-18T07:21:13.598Z,5.36
2018-12-18T07:22:13.570Z,5.31
2018-12-18T07:23:13.591Z,5.39
2018-12-18T07:24:14.215Z,5.36
2018-12-18T07:25:13.469Z,5.42
2018-12-18T07:26:13.437Z,5.42
2018-12-18T07:27:13.418Z,5.37
2018-12-18T07:28:13.400Z,5.36
2018-12-18T07:29:13.383Z,5.42
2018-12-18T07:30:13.320Z,5.37
2018-12-18T07:31:13.276Z,5.48
2018-12-18T07:32:13.245Z,5.46
2018-12-18T07:33:13.254Z,5.52
2018-12-18T07:34:13.214Z,5.51
2018-12-18T07:35:13.235Z,5.62
2018-12-18T07:36:13.121Z,5.57
2018-12-18T07:37:13.079Z,5.62
2018-12-18T07:38:13.038Z,5.60
2018-12-18T07:39:13.058Z,5.60
2018-12-18T07:40:12.973Z,5.63
2018-12-18T07:41:12.949Z,5.59
2018-12-18T07:42:12.909Z,5.60
2018-12-18T07:43:12.876Z,5.63
2018-12-18T07:44:12.882Z,5.62
2018-12-18T07:45:12.867Z,5.57
2018-12-18T07:46:12.781Z,5.59
2018-12-18T07:47:13.441Z,5.64
2018-12-18T07:48:12.716Z,5.59
2018-12-18T07:49:12.679Z,5.60
2018-12-18T07:50:12.703Z,5.69
2018-12-18T07:51:12.615Z,5.63
2018-12-18T07:52:12.585Z,5.64
2018-12-18T07:53:12.545Z,5.70
2018-12-18T07:54:12.536Z,5.69
2018-12-18T07:55:12.536Z,5.73
2018-12-18T07:56:12.457Z,5.63
2018-12-18T07:57:12.420Z,5.67
2018-12-18T07:58:12.379Z,5.73
2018-12-18T07:59:12.349Z,5.80
2018-12-18T08:00:12.355Z,5.80
2018-12-18T08:01:12.970Z,5.75
2018-12-18T08:02:12.301Z,5.80
2018-12-18T08:03:12.221Z,5.81
2018-12-18T08:04:12.184Z,5.77
2018-12-18T08:05:12.155Z,5.82
2018-12-18T08:06:12.517Z,5.82
2018-12-18T08:07:12.949Z,5.87
2018-12-18T08:08:12.108Z,5.77
2018-12-18T08:09:12.029Z,5.84
2018-12-18T08:10:12.959Z,5.85
2018-12-18T08:11:12.262Z,5.81
2018-12-18T08:12:11.935Z,5.95
2018-12-18T08:13:11.899Z,5.88
2018-12-18T08:14:11.873Z,5.84
2018-12-18T08:15:12.463Z,5.91
2018-12-18T08:16:11.858Z,5.99
2018-12-18T08:17:12.462Z,5.92
2018-12-18T08:18:11.733Z,6.00
2018-12-18T08:19:11.699Z,6.02
2018-12-18T08:20:11.680Z,6.03
2018-12-18T08:21:11.760Z,5.92
2018-12-18T08:22:11.606Z,6.02
2018-12-18T08:23:11.575Z,5.95
2018-12-18T08:24:11.556Z,6.00
2018-12-18T08:25:11.504Z,5.99
2018-12-18T08:26:11.521Z,6.06
2018-12-18T08:27:11.484Z,6.02
2018-12-18T08:28:11.404Z,6.07
2018-12-18T08:29:11.375Z,6.09
2018-12-18T08:30:11.342Z,6.07
2018-12-18T08:31:11.310Z,6.14
2018-12-18T08:32:12.040Z,6.13
2018-12-18T08:33:11.244Z,6.06
2018-12-18T08:34:11.220Z,6.14
2018-12-18T08:35:11.953Z,6.13
2018-12-18T08:36:11.146Z,6.10
2018-12-18T08:37:11.156Z,6.15
2018-12-18T08:38:11.133Z,6.20
2018-12-18T08:39:11.053Z,6.20
2018-12-18T08:40:11.043Z,6.18
2018-12-18T08:41:10.983Z,6.20
2018-12-18T08:42:10.994Z,6.24
2018-12-18T08:43:11.018Z,6.20
2018-12-18T08:44:10.886Z,6.13
2018-12-18T08:45:11.448Z,6.24
2018-12-18T08:46:11.459Z,6.17
2018-12-18T08:47:10.789Z,6.26
2018-12-18T08:48:10.822Z,6.25
2018-12-18T08:49:10.730Z,6.21
2018-12-18T08:50:11.447Z,6.18
2018-12-18T08:51:10.656Z,6.26
2018-12-18T08:52:10.633Z,6.20
2018-12-18T08:53:10.651Z,6.20
2018-12-18T08:54:11.451Z,6.31
2018-12-18T08:55:11.449Z,6.28
2018-12-18T08:56:11.446Z,6.31
2018-12-18T08:57:11.463Z,6.28
2018-12-18T08:58:10.519Z,6.29
2018-12-18T08:59:10.953Z,6.31
2018-12-18T09:00:10.370Z,6.29
2018-12-18T09:01:10.339Z,6.28
2018-12-18T09:02:10.311Z,6.24
2018-12-18T09:03:10.521Z,6.25
2018-12-18T09:04:10.243Z,6.39
2018-12-18T09:05:10.211Z,6.39
2018-12-18T09:06:10.172Z,6.36
2018-12-18T09:07:10.146Z,6.36
2018-12-18T09:08:10.151Z,6.51
2018-12-18T09:09:10.130Z,6.42
2018-12-18T09:10:10.068Z,6.44
2018-12-18T09:11:10.016Z,6.46
2018-12-18T09:12:09.980Z,6.43
2018-12-18T09:13:09.953Z,6.40
2018-12-18T09:14:09.951Z,6.40
2018-12-18T09:15:09.879Z,6.52
2018-12-18T09:16:09.849Z,6.44
2018-12-18T09:17:09.818Z,6.46
2018-12-18T09:18:09.791Z,6.47
2018-12-18T09:19:09.811Z,6.51
2018-12-18T09:20:10.047Z,6.49
2018-12-18T09:21:09.705Z,6.49
2018-12-18T09:22:10.452Z,6.52
2018-12-18T09:23:09.624Z,6.54
2018-12-18T09:24:09.641Z,6.54
2018-12-18T09:25:10.005Z,6.60
2018-12-18T09:26:10.451Z,6.52
2018-12-18T09:27:09.499Z,6.58
2018-12-18T09:28:09.464Z,6.57
2018-12-18T09:29:09.509Z,6.51
2018-12-18T09:30:09.404Z,6.49
2018-12-18T09:31:09.414Z,6.49
2018-12-18T09:32:09.337Z,6.51
2018-12-18T09:33:09.339Z,6.49
2018-12-18T09:34:09.276Z,6.47
2018-12-18T09:35:09.237Z,6.54
2018-12-18T09:36:09.256Z,6.46
2018-12-18T09:37:09.179Z,6.46
2018-12-18T09:38:09.153Z,6.47
2018-12-18T09:39:09.124Z,6.55
2018-12-18T09:40:09.082Z,6.49
2018-12-18T09:41:09.837Z,6.51
2018-12-18T09:42:09.017Z,6.60
2018-12-18T09:43:09.958Z,6.55
2018-12-18T09:44:08.949Z,6.55
2018-12-18T09:45:08.923Z,6.47
2018-12-18T09:46:08.930Z,6.57
2018-12-18T09:47:08.855Z,6.58
2018-12-18T09:48:08.829Z,6.57
2018-12-18T09:49:09.464Z,6.68
2018-12-18T09:50:08.755Z,6.65
2018-12-18T09:51:09.019Z,6.65
2018-12-18T09:52:08.691Z,6.64
2018-12-18T09:53:08.665Z,6.75
2018-12-18T09:54:08.630Z,6.75
2018-12-18T09:55:08.597Z,6.82
2018-12-18T09:56:08.607Z,6.83
2018-12-18T09:57:08.575Z,6.91
2018-12-18T09:58:08.592Z,6.94
2018-12-18T09:59:08.467Z,6.94
2018-12-18T10:00:08.439Z,7.01
2018-12-18T10:01:08.413Z,7.00
2018-12-18T10:02:08.418Z,7.11
2018-12-18T10:03:08.395Z,7.08
2018-12-18T10:04:08.307Z,7.08
2018-12-18T10:05:08.276Z,7.08
2018-12-18T10:06:08.263Z,7.09
2018-12-18T10:07:08.265Z,7.15
2018-12-18T10:08:08.180Z,7.22
2018-12-18T10:09:09.755Z,7.16
2018-12-18T10:10:08.168Z,7.23
2018-12-18T10:11:08.087Z,7.13
2018-12-18T10:12:08.050Z,7.21
2018-12-18T10:13:08.028Z,7.12
2018-12-18T10:14:08.057Z,7.03
2018-12-18T10:15:07.963Z,7.11
2018-12-18T10:16:07.924Z,7.18
2018-12-18T10:17:07.898Z,7.18
2018-12-18T10:18:07.901Z,7.16
2018-12-18T10:19:07.834Z,7.12
2018-12-18T10:20:08.460Z,7.16
2018-12-18T10:21:07.767Z,7.23
2018-12-18T10:22:07.751Z,7.30
2018-12-18T10:23:07.743Z,7.30
2018-12-18T10:24:07.672Z,7.34
2018-12-18T10:25:08.013Z,7.31
2018-12-18T10:26:08.454Z,7.40
2018-12-18T10:27:08.456Z,7.37
2018-12-18T10:28:08.457Z,7.48
2018-12-18T10:29:07.580Z,7.47
2018-12-18T10:30:08.011Z,7.56
2018-12-18T10:31:07.513Z,7.49
2018-12-18T10:32:07.956Z,7.59
2018-12-18T10:33:07.387Z,7.59
2018-12-18T10:34:07.955Z,7.55
2018-12-18T10:35:07.327Z,7.55
2018-12-18T10:36:07.342Z,7.49
2018-12-18T10:37:07.959Z,7.58
2018-12-18T10:38:08.055Z,7.70
2018-12-18T10:39:07.209Z,7.59
2018-12-18T10:40:07.173Z,7.63
2018-12-18T10:41:07.231Z,7.70
2018-12-18T10:42:07.109Z,7.64
2018-12-18T10:43:07.075Z,7.64
2018-12-18T10:44:07.050Z,7.48
2018-12-18T10:45:13.583Z,7.63
2018-12-18T10:46:07.026Z,7.56
2018-12-18T10:47:07.472Z,7.70
2018-12-18T10:48:06.918Z,7.73
2018-12-18T10:49:06.917Z,7.70
2018-12-18T10:50:06.910Z,7.75
2018-12-18T10:51:06.897Z,7.68
2018-12-18T10:52:06.796Z,7.74
2018-12-18T10:53:06.767Z,7.71
2018-12-18T10:54:06.734Z,7.82
2018-12-18T10:55:06.707Z,7.92
2018-12-18T10:56:07.015Z,8.01
2018-12-18T10:57:06.647Z,8.03
2018-12-18T10:58:06.612Z,8.03
2018-12-18T10:59:06.576Z,7.98
2018-12-18T11:00:06.607Z,7.93
2018-12-18T11:01:06.525Z,8.03
2018-12-18T11:02:06.485Z,8.10
2018-12-18T11:03:06.969Z,8.28
2018-12-18T11:04:06.426Z,8.14
2018-12-18T11:05:06.501Z,8.25
2018-12-18T11:06:09.916Z,8.35
2018-12-18T11:07:06.335Z,8.32
2018-12-18T11:08:06.346Z,8.44
2018-12-18T11:09:06.275Z,8.53
2018-12-18T11:10:06.248Z,8.46
2018-12-18T11:11:06.212Z,8.44
2018-12-18T11:12:06.179Z,8.54
2018-12-18T11:13:06.194Z,8.44
2018-12-18T11:14:06.133Z,8.40
2018-12-18T11:15:06.137Z,8.44
2018-12-18T11:16:06.119Z,8.47
2018-12-18T11:17:06.024Z,8.60
2018-12-18T11:18:06.963Z,8.52
2018-12-18T11:19:05.962Z,8.44
2018-12-18T11:20:06.970Z,8.49
2018-12-18T11:21:05.906Z,8.54
2018-12-18T11:22:05.880Z,8.52
2018-12-18T11:23:05.910Z,8.44
2018-12-18T11:24:05.818Z,8.60
2018-12-18T11:25:05.832Z,8.44
2018-12-18T11:26:05.753Z,8.44
2018-12-18T11:27:05.726Z,8.52
2018-12-18T11:28:05.697Z,8.62
2018-12-18T11:29:05.668Z,8.58
2018-12-18T11:30:05.675Z,8.57
2018-12-18T11:31:06.485Z,8.62
2018-12-18T11:32:05.571Z,8.46
2018-12-18T11:33:06.466Z,8.42
2018-12-18T11:34:05.510Z,8.44
2018-12-18T11:35:08.376Z,8.46
2018-12-18T11:36:06.227Z,8.34
2018-12-18T11:37:05.455Z,8.29
2018-12-18T11:38:05.976Z,8.26
2018-12-18T11:39:05.374Z,8.28
2018-12-18T11:40:05.564Z,8.25
2018-12-18T11:41:05.521Z,8.21
2018-12-18T11:42:05.266Z,8.16
2018-12-18T11:43:05.572Z,8.13
2018-12-18T11:44:05.242Z,8.10
2018-12-18T11:45:05.173Z,8.01
2018-12-18T11:46:05.462Z,8.03
2018-12-18T11:47:05.180Z,8.03
2018-12-18T11:48:05.093Z,7.85
2018-12-18T11:49:05.092Z,7.83
2018-12-18T11:50:05.030Z,7.83
2018-12-18T11:51:05.039Z,7.86
2018-12-18T11:52:05.026Z,7.73
2018-12-18T11:53:04.928Z,7.71
2018-12-18T11:54:05.028Z,7.68
2018-12-18T11:55:04.869Z,7.73
2018-12-18T11:56:04.919Z,7.58
2018-12-18T11:57:05.214Z,7.61
2018-12-18T11:58:04.986Z,7.67
2018-12-18T11:59:04.748Z,7.58
2018-12-18T12:00:04.722Z,7.70
2018-12-18T12:01:05.395Z,7.64
2018-12-18T12:02:04.731Z,7.64
2018-12-18T12:03:04.616Z,7.75
2018-12-18T12:04:04.584Z,7.77
2018-12-18T12:05:04.650Z,7.71
2018-12-18T12:06:04.573Z,7.75
2018-12-18T12:07:04.496Z,7.92
2018-12-18T12:08:04.680Z,7.88
2018-12-18T12:09:04.447Z,7.93
2018-12-18T12:10:04.397Z,7.88
2018-12-18T12:11:04.429Z,7.95
2018-12-18T12:12:04.335Z,8.10
2018-12-18T12:13:04.322Z,8.07
2018-12-18T12:14:04.355Z,8.28
2018-12-18T12:15:04.320Z,8.28
2018-12-18T12:16:04.250Z,8.39
2018-12-18T12:17:04.187Z,8.42
2018-12-18T12:18:04.318Z,8.42
2018-12-18T12:19:04.107Z,8.36
2018-12-18T12:20:05.025Z,8.43
2018-12-18T12:21:04.061Z,8.52
2018-12-18T12:22:04.062Z,8.43
2018-12-18T12:23:04.002Z,8.43
2018-12-18T12:24:04.556Z,8.35
2018-12-18T12:25:03.920Z,8.40
2018-12-18T12:26:03.891Z,8.47
2018-12-18T12:27:03.971Z,8.43
2018-12-18T12:28:04.496Z,8.32
2018-12-18T12:29:03.902Z,8.35
2018-12-18T12:30:04.483Z,8.34
2018-12-18T12:31:03.743Z,8.26
2018-12-18T12:32:03.886Z,8.32
2018-12-18T12:33:03.744Z,8.28
2018-12-18T12:34:04.052Z,8.25
2018-12-18T12:35:03.696Z,8.26
2018-12-18T12:36:03.630Z,8.11
2018-12-18T12:37:04.481Z,8.14
2018-12-18T12:38:03.517Z,8.16
2018-12-18T12:39:03.531Z,8.13
2018-12-18T12:40:03.465Z,8.09
2018-12-18T12:41:03.469Z,8.06
2018-12-18T12:42:03.524Z,8.04
2018-12-18T12:43:03.388Z,8.04
2018-12-18T12:44:03.334Z,7.95
2018-12-18T12:45:03.463Z,7.98
2018-12-18T12:46:03.338Z,7.95
2018-12-18T12:47:03.987Z,8.01
2018-12-18T12:48:03.422Z,7.98
2018-12-18T12:49:03.228Z,7.92
2018-12-18T12:50:03.342Z,7.83
2018-12-18T12:51:03.165Z,7.77
2018-12-18T12:52:03.093Z,7.70
2018-12-18T12:53:03.076Z,7.70
2018-12-18T12:54:03.248Z,7.52
2018-12-18T12:55:02.987Z,7.59
2018-12-18T12:56:03.047Z,7.49
2018-12-18T12:57:03.478Z,7.49
2018-12-18T12:58:02.941Z,7.37
2018-12-18T12:59:02.907Z,7.34
2018-12-18T13:00:02.880Z,7.23
2018-12-18T13:01:03.121Z,7.21
2018-12-18T13:02:02.774Z,7.15
2018-12-18T13:03:02.733Z,7.08
2018-12-18T13:04:03.092Z,7.05
2018-12-18T13:05:02.682Z,7.11
2018-12-18T13:06:02.644Z,7.12
2018-12-18T13:07:02.651Z,7.04
2018-12-18T13:08:02.579Z,7.09
2018-12-18T13:09:02.602Z,7.00
2018-12-18T13:10:02.557Z,6.98
2018-12-18T13:11:02.573Z,6.98
2018-12-18T13:12:02.455Z,7.00
2018-12-18T13:13:02.767Z,7.01
2018-12-18T13:14:02.426Z,7.00
2018-12-18T13:15:02.394Z,7.13
2018-12-18T13:16:02.411Z,7.12
2018-12-18T13:17:02.289Z,7.19
2018-12-18T13:18:02.311Z,7.22